Clarksville, Missouri
Current Conditions -  °F | °C
As of 3:35 AM on Saturday 20 Dec 2014 (Local Time) from KPPQ Reporting Station
Overcast Overcast  
Wind Chill:   Ceiling: 6000
Heat Index:   Visibility: 7mi
Dew Point: -2°   Wind: 3mph
Humidity: 87%   Direction: 140°SE
Pressure: 30.25"   Gusts: NA
Location:  39.37°N, 90.91°W
Report Text: KPPQ 200935Z AUTO 14003KT 7SM BKN060 OVC065 00/M02 A3025 RMK AO2 T00011019
Loading
Personal Weather Stations






























Interactive Weather Map New forecast layout! Learn more

10-Day Weather Forecast

Advertisements
Track Severe Weather on mobile